Time;durP1;ratioP1;P1;durP2;ratioP2;P2;SDS_P1;SDS_P2;PMS_P1;PMS_P2;Temp;Humidity;BMP_temperature;BMP_pressure;BME280_temperature;BME280_humidity;BME280_pressure;Samples;Min_cycle;Max_cycle;Signal;HPM_P1;HPM_P2
2022/05/03 00:00:07;;;;;;;30.50;23.30;;;;;;;11.40;55.82;98513.67;221176;1274;23112;-71
2022/05/03 00:05:29;;;;;;;35.10;24.80;;;;;;;11.31;56.32;98511.52;220778;1274;166308;-72
2022/05/03 00:10:45;;;;;;;31.80;24.10;;;;;;;11.23;57.17;98509.48;220764;1278;22569;-71
2022/05/03 00:15:51;;;;;;;33.80;24.60;;;;;;;11.19;57.69;98507.89;221288;1276;22649;-72
2022/05/03 00:20:55;;;;;;;37.90;25.60;;;;;;;11.17;58.11;98506.69;220981;1274;22566;-71
2022/05/03 00:25:57;;;;;;;38.80;28.30;;;;;;;11.07;58.50;98499.11;221241;1275;22546;-71
2022/05/03 00:31:02;;;;;;;43.20;28.80;;;;;;;10.94;59.23;98497.80;220838;1274;25260;-72
2022/05/03 00:36:07;;;;;;;41.40;27.30;;;;;;;10.81;59.61;98498.04;221180;1274;23831;-72
2022/05/03 00:41:17;;;;;;;37.30;26.20;;;;;;;10.76;59.62;98497.27;221284;1274;22562;-72
2022/05/03 00:46:27;;;;;;;33.10;24.20;;;;;;;10.79;59.69;98498.95;221180;1274;25264;-71
2022/05/03 00:51:42;;;;;;;28.80;21.90;;;;;;;10.84;59.16;98496.09;220979;1273;22648;-70
2022/05/03 00:57:20;;;;;;;33.40;24.30;;;;;;;10.87;58.98;98496.48;221235;1274;24240;-71
2022/05/03 01:02:43;;;;;;;31.60;22.90;;;;;;;10.90;58.82;98498.47;220880;1274;22551;-70
2022/05/03 01:08:04;;;;;;;25.20;18.90;;;;;;;10.87;59.07;98498.40;221154;1274;24776;-71
2022/05/03 01:13:30;;;;;;;23.50;15.90;;;;;;;10.82;58.56;98490.64;220944;1274;22704;-70
2022/05/03 01:19:14;;;;;;;20.20;14.00;;;;;;;10.89;58.12;98488.69;221009;1275;22550;-70
2022/05/03 01:24:25;;;;;;;17.50;13.80;;;;;;;11.05;57.69;98495.34;221140;1274;22584;-71
2022/05/03 01:29:31;;;;;;;21.90;16.20;;;;;;;11.17;57.48;98502.20;221067;1277;22675;-71
2022/05/03 01:34:35;;;;;;;25.20;18.30;;;;;;;11.10;58.27;98509.46;221115;1274;25474;-71
2022/05/03 01:39:49;;;;;;;25.40;18.90;;;;;;;10.86;58.73;98505.77;221055;1274;22717;-70
2022/05/03 01:45:03;;;;;;;22.20;17.20;;;;;;;10.64;58.99;98507.67;221131;1274;22693;-70
2022/05/03 01:50:20;;;;;;;20.40;15.10;;;;;;;10.56;59.08;98498.48;221171;1274;25251;-70
2022/05/03 01:55:58;;;;;;;19.70;15.20;;;;;;;10.54;58.95;98492.52;221070;1274;24237;-71
2022/05/03 02:01:39;;;;;;;19.80;15.50;;;;;;;10.57;59.16;98493.20;220826;1274;22550;-70
2022/05/03 02:07:12;;;;;;;17.80;15.00;;;;;;;10.62;59.20;98495.48;220841;1277;22543;-70
2022/05/03 02:12:15;;;;;;;22.90;16.00;;;;;;;10.65;59.51;98498.70;220647;1275;22557;-71
2022/05/03 02:17:36;;;;;;;20.40;15.70;;;;;;;10.69;59.38;98496.16;220872;1274;25373;-70
2022/05/03 02:22:59;;;;;;;19.30;15.30;;;;;;;10.74;59.59;98490.13;220848;1276;22888;-70
2022/05/03 02:28:24;;;;;;;18.10;14.60;;;;;;;10.78;59.28;98480.14;220841;1274;22611;-71
2022/05/03 02:33:42;;;;;;;21.20;15.80;;;;;;;10.84;59.56;98469.73;220950;1274;22650;-72
2022/05/03 02:39:05;;;;;;;20.90;16.00;;;;;;;10.86;59.70;98458.20;220981;1274;24299;-71
2022/05/03 02:44:13;;;;;;;20.00;16.00;;;;;;;10.77;60.05;98462.31;221727;1274;23307;-71
2022/05/03 02:49:23;;;;;;;21.50;16.60;;;;;;;10.70;60.06;98466.15;222004;1274;22624;-71
2022/05/03 02:55:14;;;;;;;24.00;18.00;;;;;;;10.72;60.62;98511.55;221194;1274;25248;-70
2022/05/03 03:06:04;;;;;;;12.40;10.00;;;;;;;10.58;62.05;98462.14;220960;1274;22551;-71
2022/05/03 03:11:12;;;;;;;21.70;16.50;;;;;;;10.74;63.97;98455.29;220786;1277;22600;-72
2022/05/03 03:16:21;;;;;;;21.70;16.30;;;;;;;10.68;64.52;98460.23;220985;1275;24231;-70
2022/05/03 03:21:48;;;;;;;22.50;18.00;;;;;;;10.59;64.93;98470.04;221233;1275;22579;-72
2022/05/03 03:27:02;;;;;;;23.20;17.40;;;;;;;10.47;64.49;98468.65;221363;1274;23139;-72
2022/05/03 03:32:21;;;;;;;25.80;19.20;;;;;;;10.35;64.70;98470.77;221085;1274;22585;-70
2022/05/03 03:37:33;;;;;;;22.80;19.10;;;;;;;10.21;65.37;98471.09;220955;1274;22633;-71
2022/05/03 03:42:41;;;;;;;23.70;18.80;;;;;;;10.15;65.68;98469.09;221249;1274;22666;-71
2022/05/03 03:47:47;;;;;;;20.60;17.20;;;;;;;10.16;65.80;98478.52;220926;1274;22576;-71
2022/05/03 03:52:49;;;;;;;21.20;17.80;;;;;;;10.21;66.10;98478.59;221148;1273;23027;-72
2022/05/03 03:57:52;;;;;;;24.10;18.00;;;;;;;10.24;66.31;98479.17;220930;1274;22554;-70
2022/05/03 04:02:56;;;;;;;23.40;18.10;;;;;;;10.24;66.04;98479.98;221516;1274;25022;-70
2022/05/03 04:08:01;;;;;;;23.90;18.10;;;;;;;10.28;66.02;98482.77;221061;1274;22538;-71
2022/05/03 04:13:15;;;;;;;23.40;17.70;;;;;;;10.33;66.39;98484.02;220698;1277;25309;-70
2022/05/03 04:18:44;;;;;;;22.20;18.40;;;;;;;10.38;66.22;98489.85;221184;1274;24262;-71
2022/05/03 04:23:45;;;;;;;22.30;18.10;;;;;;;10.44;66.32;98489.53;221212;1274;22602;-71
2022/05/03 04:28:47;;;;;;;24.60;18.10;;;;;;;10.52;66.31;98492.60;220824;1276;22547;-71
2022/05/03 04:33:54;;;;;;;21.40;18.60;;;;;;;10.60;66.55;98489.41;221151;1274;22693;-71
2022/05/03 04:38:57;;;;;;;24.40;20.10;;;;;;;10.64;66.58;98489.67;222211;1273;24262;-71
2022/05/03 04:44:08;;;;;;;22.90;19.80;;;;;;;10.72;66.52;98497.63;222153;1274;24260;-70
2022/05/03 04:49:14;;;;;;;25.60;21.10;;;;;;;10.86;66.50;98506.59;221777;1274;22566;-71
2022/05/03 04:54:17;;;;;;;25.40;21.00;;;;;;;11.00;66.41;98511.09;221075;1273;24232;-71
2022/05/03 04:59:19;;;;;;;24.20;20.10;;;;;;;11.19;66.52;98513.02;220881;1274;22555;-71
2022/05/03 05:04:22;;;;;;;24.80;20.40;;;;;;;11.38;66.43;98518.50;220920;1274;22554;-71
2022/05/03 05:09:27;;;;;;;22.00;19.40;;;;;;;11.57;66.21;98525.35;220953;1275;22713;-71
2022/05/03 05:14:33;;;;;;;23.70;20.00;;;;;;;11.71;65.89;98523.11;220932;1274;24224;-71
2022/05/03 05:19:35;;;;;;;24.70;20.40;;;;;;;11.80;65.71;98520.84;220942;1274;23018;-71
2022/05/03 05:24:38;;;;;;;25.90;20.10;;;;;;;11.97;65.78;98522.19;220748;1274;24230;-72
2022/05/03 05:29:40;;;;;;;23.70;19.80;;;;;;;12.16;65.67;98518.71;221186;1274;23827;-70
2022/05/03 05:34:56;;;;;;;30.70;24.00;;;;;;;12.29;65.30;98528.34;221129;1273;23236;-71
2022/05/03 05:40:00;;;;;;;27.90;23.20;;;;;;;12.36;65.24;98535.27;221250;1274;23440;-72
2022/05/03 05:45:03;;;;;;;24.90;21.50;;;;;;;12.45;65.20;98536.70;221072;1274;22562;-72
2022/05/03 05:50:05;;;;;;;26.90;20.80;;;;;;;12.69;65.41;98534.38;221297;1274;22607;-71
2022/05/03 05:55:08;;;;;;;28.30;20.90;;;;;;;13.02;65.33;98537.73;221117;1274;22573;-72
2022/05/03 06:00:11;;;;;;;26.70;20.80;;;;;;;13.28;64.61;98538.60;220862;1274;22563;-71
2022/05/03 06:05:16;;;;;;;24.40;20.70;;;;;;;13.46;63.91;98535.95;220722;1274;25377;-72
2022/05/03 06:10:38;;;;;;;23.70;20.90;;;;;;;13.68;63.47;98545.36;220760;1276;25419;-71
2022/05/03 06:15:42;;;;;;;21.50;19.20;;;;;;;13.93;63.35;98537.60;220578;1276;24236;-71
2022/05/03 06:20:54;;;;;;;22.20;19.50;;;;;;;14.29;63.13;98537.35;221237;1276;22598;-72
2022/05/03 06:26:00;;;;;;;22.70;20.20;;;;;;;14.57;62.30;98542.77;220760;1276;22590;-72
2022/05/03 06:31:05;;;;;;;22.00;19.20;;;;;;;14.65;61.53;98545.98;220946;1275;22706;-71
2022/05/03 06:36:07;;;;;;;22.40;18.90;;;;;;;14.62;61.08;98544.30;221231;1274;23263;-71
2022/05/03 06:41:12;;;;;;;25.00;19.60;;;;;;;14.62;60.91;98543.06;221040;1274;22724;-73
2022/05/03 06:46:15;;;;;;;21.20;17.80;;;;;;;14.82;61.15;98546.37;221264;1274;22608;-72
2022/05/03 06:51:30;;;;;;;19.60;15.80;;;;;;;15.16;59.79;98546.41;221411;1274;22805;-72
2022/05/03 06:56:35;;;;;;;20.10;16.80;;;;;;;15.44;58.44;98543.77;221138;1274;22554;-72
2022/05/03 07:01:38;;;;;;;20.70;16.80;;;;;;;15.75;58.14;98541.40;221064;1275;22618;-71
2022/05/03 07:07:00;;;;;;;20.00;15.60;;;;;;;16.13;56.50;98545.98;220856;1277;22526;-72
2022/05/03 07:12:03;;;;;;;23.90;18.80;;;;;;;16.43;55.32;98547.96;220863;1274;24384;-72
2022/05/03 07:17:08;;;;;;;19.40;16.70;;;;;;;16.71;54.38;98545.90;220874;1274;23423;-72
2022/05/03 07:27:32;;;;;;;33.40;28.30;;;;;;;17.19;52.79;98552.45;220783;1274;25242;-72
2022/05/03 07:32:34;;;;;;;22.40;18.00;;;;;;;17.39;52.64;98552.91;220953;1274;22564;-72
2022/05/03 07:37:39;;;;;;;19.70;17.60;;;;;;;17.55;51.94;98551.57;220986;1274;22574;-72
2022/05/03 07:42:46;;;;;;;19.20;17.10;;;;;;;17.81;51.73;98555.13;221475;1274;22612;-71
2022/05/03 07:47:48;;;;;;;17.30;14.10;;;;;;;18.02;50.23;98557.70;221062;1274;22578;-70
2022/05/03 07:52:53;;;;;;;15.60;12.40;;;;;;;18.19;49.32;98563.69;220997;1273;24258;-72
2022/05/03 07:57:56;;;;;;;14.00;11.80;;;;;;;18.32;48.51;98562.42;221185;1274;22587;-72
2022/05/03 08:02:58;;;;;;;15.10;13.00;;;;;;;18.49;48.01;98564.89;220766;1275;22638;-71
2022/05/03 08:08:00;;;;;;;12.60;11.30;;;;;;;18.65;47.53;98565.61;220864;1274;25282;-72
2022/05/03 08:13:05;;;;;;;12.90;10.80;;;;;;;18.85;46.88;98569.24;220729;1276;22631;-72
2022/05/03 08:18:07;;;;;;;8.30;7.10;;;;;;;19.07;46.55;98568.12;220776;1274;23158;-73
2022/05/03 08:23:09;;;;;;;8.50;6.80;;;;;;;19.16;45.78;98571.27;220979;1275;22538;-72
2022/05/03 08:28:12;;;;;;;9.10;7.40;;;;;;;19.22;45.31;98571.58;221061;1274;22691;-70
2022/05/03 08:33:14;;;;;;;7.40;6.50;;;;;;;19.23;44.90;98578.45;221547;1273;22531;-71
2022/05/03 08:43:38;;;;;;;9.30;7.80;;;;;;;19.18;44.20;98577.91;221252;1274;22550;-71
2022/05/03 08:48:44;;;;;;;10.80;7.90;;;;;;;19.30;44.44;98578.06;221508;1273;22718;-71
2022/05/03 08:53:50;;;;;;;8.90;8.00;;;;;;;19.41;44.06;98582.27;221335;1273;22547;-71
2022/05/03 08:59:04;;;;;;;10.20;8.50;;;;;;;19.39;43.75;98585.09;221245;1273;25370;-71
2022/05/03 09:04:06;;;;;;;14.30;9.70;;;;;;;19.44;43.77;98586.77;221121;1274;22573;-70
2022/05/03 09:09:16;;;;;;;11.60;9.30;;;;;;;19.75;43.54;98590.27;221169;1273;23193;-71
2022/05/03 09:14:42;;;;;;;11.80;8.70;;;;;;;20.08;43.06;98588.52;221247;1274;23171;-71
2022/05/03 09:19:51;;;;;;;9.80;8.20;;;;;;;20.37;42.18;98587.64;221154;1274;22611;-72
2022/05/03 09:25:22;;;;;;;11.40;8.30;;;;;;;20.54;41.47;98587.58;221174;1274;22628;-71
2022/05/03 09:30:30;;;;;;;19.20;8.70;;;;;;;20.44;41.09;98584.20;221139;1274;22606;-71
2022/05/03 09:35:36;;;;;;;11.90;9.10;;;;;;;20.45;41.14;98579.93;221656;1273;22482;-72
2022/05/03 09:40:45;;;;;;;13.90;9.00;;;;;;;20.46;40.79;98576.31;221224;1273;26235;-71
2022/05/03 09:46:04;;;;;;;11.60;9.10;;;;;;;20.49;40.74;98575.67;221538;1272;23076;-71
2022/05/03 09:51:15;;;;;;;7.90;7.10;;;;;;;20.55;40.42;98576.33;221090;1274;22734;-72
2022/05/03 09:56:23;;;;;;;9.00;7.20;;;;;;;20.63;39.81;98580.36;221138;1274;23123;-71
2022/05/03 10:01:38;;;;;;;9.00;7.20;;;;;;;20.54;39.39;98571.64;221516;1274;22546;-72
2022/05/03 10:06:42;;;;;;;8.70;7.70;;;;;;;20.54;39.62;98568.16;222908;1274;23248;-71
2022/05/03 10:11:46;;;;;;;8.40;7.50;;;;;;;20.66;39.66;98567.06;220931;1275;22716;-72
2022/05/03 10:22:12;;;;;;;9.20;7.10;;;;;;;20.89;39.15;98567.56;220784;1275;22542;-72
2022/05/03 10:27:23;;;;;;;8.10;6.50;;;;;;;20.87;38.93;98566.28;220878;1274;22711;-72
2022/05/03 10:32:49;;;;;;;11.40;8.00;;;;;;;20.91;38.52;98564.71;221271;1274;22585;-72
2022/05/03 10:38:02;;;;;;;8.40;6.20;;;;;;;20.86;38.17;98561.36;221321;1273;22566;-71
2022/05/03 10:43:11;;;;;;;8.40;6.30;;;;;;;21.10;38.19;98562.16;221294;1274;25457;-71
2022/05/03 10:48:26;;;;;;;7.70;6.20;;;;;;;21.37;37.97;98560.09;221141;1274;23227;-71
2022/05/03 10:53:39;;;;;;;7.60;6.50;;;;;;;21.42;37.33;98557.52;221015;1274;23452;-71
2022/05/03 10:58:44;;;;;;;6.50;5.60;;;;;;;21.32;37.01;98554.65;221652;1274;22610;-71
2022/05/03 11:03:54;;;;;;;7.30;6.60;;;;;;;21.29;37.05;98552.03;221332;1274;22672;-72
2022/05/03 11:14:05;;;;;;;7.30;5.60;;;;;;;21.73;36.76;98551.77;220834;1277;22786;-70
2022/05/03 11:19:24;;;;;;;7.40;6.70;;;;;;;22.12;36.32;98544.48;220821;1276;24212;-71
2022/05/03 11:24:33;;;;;;;9.10;6.80;;;;;;;22.50;35.65;98542.20;220498;1276;22693;-70
2022/05/03 11:29:41;;;;;;;8.60;6.50;;;;;;;22.69;35.37;98537.09;220621;1276;26714;-71
2022/05/03 11:34:44;;;;;;;7.40;6.60;;;;;;;22.96;34.73;98528.45;221211;1274;23823;-70
2022/05/03 11:39:52;;;;;;;8.60;6.90;;;;;;;23.04;34.51;98522.34;221860;1274;25376;-70
2022/05/03 11:44:57;;;;;;;7.00;6.30;;;;;;;22.80;34.26;98519.26;221007;1274;25419;-71
2022/05/03 11:50:07;;;;;;;8.00;6.60;;;;;;;22.44;34.38;98529.02;221253;1274;25287;-71
2022/05/03 12:00:49;;;;;;;6.70;6.00;;;;;;;21.55;34.74;98533.12;220973;1274;25165;-72
2022/05/03 12:05:59;;;;;;;6.90;6.00;;;;;;;21.30;35.02;98527.91;220927;1274;325117;-71
2022/05/03 12:11:20;;;;;;;6.80;6.10;;;;;;;21.33;34.85;98529.13;220936;1275;23408;-71
2022/05/03 12:16:25;;;;;;;9.70;5.90;;;;;;;21.40;34.58;98522.68;221136;1275;22661;-71
2022/05/03 12:21:30;;;;;;;6.70;5.60;;;;;;;21.41;34.58;98518.98;221186;1276;25371;-72
2022/05/03 12:26:55;;;;;;;7.10;5.60;;;;;;;21.40;34.49;98520.28;222112;1275;22720;-71
2022/05/03 12:32:24;;;;;;;8.70;5.60;;;;;;;21.47;34.27;98512.69;221325;1274;22994;-71
2022/05/03 12:37:27;;;;;;;7.90;4.90;;;;;;;21.65;34.08;98511.23;222074;1274;25242;-72
2022/05/03 12:42:48;;;;;;;6.10;5.50;;;;;;;22.00;34.05;98506.61;221221;1275;25028;-72
2022/05/03 12:47:54;;;;;;;6.10;5.50;;;;;;;22.45;33.66;98498.17;221282;1274;22561;-72
2022/05/03 12:52:56;;;;;;;5.90;5.30;;;;;;;22.92;33.91;98494.77;221351;1274;24142;-71
2022/05/03 13:03:22;;;;;;;8.10;7.30;;;;;;;23.16;32.91;98487.41;220968;1274;23528;-71
2022/05/03 13:08:27;;;;;;;8.40;6.20;;;;;;;22.81;32.97;98493.73;221399;1274;26248;-72
2022/05/03 13:13:29;;;;;;;6.20;5.60;;;;;;;22.30;33.37;98491.39;220771;1277;24213;-72
2022/05/03 13:18:32;;;;;;;7.20;6.50;;;;;;;22.03;34.20;98487.33;221004;1277;25257;-71
2022/05/03 13:23:50;;;;;;;6.10;5.60;;;;;;;22.01;34.53;98489.65;220751;1275;24337;-71
2022/05/03 13:29:20;;;;;;;7.20;6.20;;;;;;;21.61;34.48;98489.23;220932;1277;22876;-71
2022/05/03 13:34:25;;;;;;;8.00;5.50;;;;;;;21.23;34.94;98488.27;221287;1274;22564;-71
2022/05/03 13:44:53;;;;;;;7.30;5.90;;;;;;;20.88;35.90;98482.36;221455;1274;24860;-71
2022/05/03 13:49:59;;;;;;;5.50;5.00;;;;;;;20.97;36.20;98478.71;220895;1277;23415;-71
2022/05/03 13:55:01;;;;;;;7.80;6.10;;;;;;;21.17;36.12;98478.00;221046;1274;23809;-71
2022/05/03 14:00:21;;;;;;;;;;;;;;;21.15;35.65;98475.55;221136;1274;24724;-71
2022/05/03 14:05:36;;;;;;;6.00;5.40;;;;;;;21.02;35.71;98472.65;220861;1275;25011;-72
2022/05/03 14:10:55;;;;;;;5.60;5.00;;;;;;;21.07;35.81;98471.16;220743;1275;22700;-71
2022/05/03 14:16:12;;;;;;;5.80;5.30;;;;;;;21.30;35.95;98469.06;220795;1275;22560;-71
2022/05/03 14:21:15;;;;;;;5.30;4.50;;;;;;;21.46;35.42;98464.33;221335;1276;26455;-71
2022/05/03 14:26:30;;;;;;;5.10;4.60;;;;;;;21.54;34.91;98463.44;221003;1276;22539;-72
2022/05/03 14:31:38;;;;;;;5.90;5.30;;;;;;;21.47;35.22;98461.13;221184;1273;22525;-70
2022/05/03 14:36:40;;;;;;;5.30;4.80;;;;;;;21.57;35.71;98463.00;221775;1274;22717;-72
2022/05/03 14:41:43;;;;;;;6.50;5.00;;;;;;;21.59;35.58;98467.17;220877;1275;25315;-71
2022/05/03 14:46:45;;;;;;;5.00;4.60;;;;;;;21.47;35.72;98470.09;221091;1274;22879;-71
2022/05/03 14:51:47;;;;;;;5.10;4.60;;;;;;;21.34;35.89;98469.53;221065;1274;24230;-71
2022/05/03 15:07:36;;;;;;;5.90;4.60;;;;;;;20.93;36.41;98459.20;221056;1274;22815;-72
2022/05/03 15:12:39;;;;;;;5.40;4.90;;;;;;;20.99;36.42;98461.63;220807;1275;23040;-70
2022/05/03 15:17:50;;;;;;;5.30;4.20;;;;;;;20.91;36.22;98465.45;221067;1274;23309;-69
2022/05/03 15:28:18;;;;;;;4.40;4.00;;;;;;;20.48;37.02;98461.08;221084;1274;25969;-71
2022/05/03 15:33:21;;;;;;;5.10;4.60;;;;;;;20.43;37.28;98467.35;221099;1275;25852;-73
2022/05/03 15:38:24;;;;;;;5.20;4.60;;;;;;;20.54;37.59;98463.44;221271;1277;25446;-71
2022/05/03 15:43:36;;;;;;;4.60;4.20;;;;;;;20.69;37.43;98456.95;220606;1278;22717;-71
2022/05/03 15:48:38;;;;;;;4.90;4.50;;;;;;;20.67;37.13;98454.90;220760;1276;22562;-71
2022/05/03 15:53:44;;;;;;;5.90;4.50;;;;;;;20.60;37.18;98450.46;221324;1277;23343;-71
2022/05/03 15:58:46;;;;;;;6.00;4.40;;;;;;;20.40;37.13;98460.31;221786;1273;25364;-71
2022/05/03 16:03:51;;;;;;;5.60;4.70;;;;;;;20.16;37.83;98462.05;221460;1277;22593;-71
2022/05/03 16:08:56;;;;;;;6.00;4.90;;;;;;;19.89;38.19;98460.45;220820;1275;25444;-71
2022/05/03 16:13:59;;;;;;;6.20;4.40;;;;;;;19.68;38.37;98460.30;220814;1275;26390;-71
2022/05/03 16:19:02;;;;;;;5.10;4.60;;;;;;;19.48;38.56;98462.60;221177;1276;23062;-70
2022/05/03 16:24:13;;;;;;;5.40;4.90;;;;;;;19.30;38.79;98456.27;219326;1275;25242;-72
2022/05/03 16:29:17;;;;;;;4.60;4.10;;;;;;;19.19;39.16;98458.88;221188;1275;24335;-71
2022/05/03 16:34:19;;;;;;;5.60;4.30;;;;;;;19.08;39.56;98463.19;221315;1275;23347;-72
2022/05/03 16:44:46;;;;;;;4.40;3.90;;;;;;;18.74;39.09;98461.58;220989;1274;24387;-71
2022/05/03 16:49:51;;;;;;;4.60;4.10;;;;;;;18.51;38.93;98466.05;221550;1275;22610;-71
2022/05/03 16:54:54;;;;;;;4.70;4.00;;;;;;;18.31;39.10;98465.30;221322;1274;22709;-71
2022/05/03 17:00:08;;;;;;;5.10;4.60;;;;;;;18.19;39.39;98467.77;221137;1277;22699;-71
2022/05/03 17:05:10;;;;;;;7.30;5.50;;;;;;;18.15;39.68;98467.67;221653;1274;23053;-71
2022/05/03 17:10:12;;;;;;;5.00;4.10;;;;;;;18.16;39.90;98474.51;220973;1278;25329;-71
2022/05/03 17:15:15;;;;;;;4.70;4.00;;;;;;;18.19;40.00;98473.52;221012;1275;22551;-71
2022/05/03 17:20:20;;;;;;;5.90;4.60;;;;;;;18.22;39.88;98473.91;220973;1275;22555;-72
2022/05/03 17:25:24;;;;;;;4.40;4.00;;;;;;;18.23;39.90;98473.15;220934;1274;26229;-72
2022/05/03 17:30:26;;;;;;;4.50;4.10;;;;;;;18.15;40.03;98474.29;220822;1275;25249;-71
2022/05/03 17:35:28;;;;;;;5.00;4.40;;;;;;;17.99;39.93;98480.02;221107;1274;25373;-72
2022/05/03 17:40:30;;;;;;;5.60;4.50;;;;;;;17.80;40.15;98489.45;221105;1274;25077;-71
2022/05/03 17:45:45;;;;;;;6.20;4.30;;;;;;;17.58;40.42;98493.86;221154;1274;22749;-70
2022/05/03 17:50:54;;;;;;;6.70;4.80;;;;;;;17.35;40.78;98492.39;221017;1277;24695;-71
2022/05/03 17:56:16;;;;;;;5.80;4.80;;;;;;;17.16;41.08;98496.36;221167;1274;25248;-70
2022/05/03 18:01:20;;;;;;;6.10;5.00;;;;;;;16.96;41.43;98500.52;221257;1274;24963;-72
2022/05/03 18:06:22;;;;;;;10.50;6.80;;;;;;;16.76;41.80;98501.09;221028;1275;22560;-72
2022/05/03 18:11:24;;;;;;;7.20;6.00;;;;;;;16.56;42.04;98508.77;220992;1275;24206;-74
2022/05/03 18:16:27;;;;;;;8.20;6.20;;;;;;;16.35;42.23;98518.66;220931;1277;23285;-72
2022/05/03 18:21:31;;;;;;;8.10;6.70;;;;;;;16.16;42.70;98524.69;220779;1274;22668;-71
2022/05/03 18:26:33;;;;;;;10.60;7.80;;;;;;;15.94;42.91;98523.90;220623;1277;22591;-71
2022/05/03 18:31:35;;;;;;;13.00;9.00;;;;;;;15.71;43.33;98521.25;220813;1275;22720;-72
2022/05/03 18:36:38;;;;;;;11.50;8.00;;;;;;;15.50;43.74;98525.86;220915;1277;22632;-74
2022/05/03 18:41:40;;;;;;;9.90;7.40;;;;;;;15.26;44.28;98526.72;220869;1274;24231;-72
2022/05/03 18:46:43;;;;;;;9.90;7.20;;;;;;;15.03;44.78;98529.96;221112;1274;22547;-71
2022/05/03 18:51:49;;;;;;;11.20;8.20;;;;;;;14.83;45.36;98539.04;221060;1274;23808;-71
2022/05/03 18:56:51;;;;;;;17.50;11.80;;;;;;;14.71;45.89;98542.75;221160;1274;22565;-71
2022/05/03 19:01:53;;;;;;;14.40;9.40;;;;;;;14.65;46.35;98551.36;220872;1274;22606;-71
2022/05/03 19:07:04;;;;;;;15.80;11.90;;;;;;;14.62;46.40;98551.79;220718;1275;25529;-71
2022/05/03 19:12:08;;;;;;;16.00;12.50;;;;;;;14.61;46.79;98555.94;220774;1275;24265;-72
2022/05/03 19:17:10;;;;;;;24.10;17.90;;;;;;;14.60;46.96;98564.73;220661;1275;22561;-71
2022/05/03 19:22:15;;;;;;;14.40;11.20;;;;;;;14.57;47.05;98566.00;220901;1275;22529;-72
2022/05/03 19:32:38;;;;;;;14.30;10.90;;;;;;;14.49;48.24;98569.84;221129;1273;23051;-71
2022/05/03 19:37:40;;;;;;;12.70;8.40;;;;;;;14.41;48.16;98574.90;220946;1275;22548;-72
2022/05/03 19:42:43;;;;;;;8.90;7.50;;;;;;;14.35;48.51;98579.91;220678;1277;22621;-71
2022/05/03 19:47:46;;;;;;;8.50;7.00;;;;;;;14.26;48.84;98578.85;220891;1275;22744;-71
2022/05/03 19:52:50;;;;;;;10.70;6.90;;;;;;;14.13;49.33;98585.14;220986;1274;24207;-71
2022/05/03 19:57:53;;;;;;;10.40;7.00;;;;;;;13.99;49.79;98591.72;220770;1274;22672;-71
2022/05/03 20:03:01;;;;;;;8.20;6.80;;;;;;;13.80;50.02;98595.65;220924;1274;22621;-71
2022/05/03 20:08:07;;;;;;;9.00;6.90;;;;;;;13.60;50.51;98594.02;220824;1274;24227;-71
2022/05/03 20:13:10;;;;;;;15.30;7.80;;;;;;;13.38;50.86;98594.44;221663;1274;22561;-70
2022/05/03 20:18:13;;;;;;;10.20;8.00;;;;;;;13.22;51.24;98603.48;221489;1274;22558;-71
2022/05/03 20:23:16;;;;;;;9.10;7.50;;;;;;;13.06;51.56;98603.23;220742;1275;22524;-71
2022/05/03 20:28:18;;;;;;;10.50;7.80;;;;;;;12.90;51.87;98602.75;220726;1274;22533;-71
2022/05/03 20:33:21;;;;;;;12.00;8.00;;;;;;;12.73;52.17;98606.85;221030;1274;22552;-71
2022/05/03 20:38:24;;;;;;;13.00;9.30;;;;;;;12.58;52.60;98605.51;221261;1273;22586;-71
2022/05/03 20:43:27;;;;;;;12.60;8.40;;;;;;;12.43;52.29;98603.86;220796;1275;22550;-70
2022/05/03 20:53:52;;;;;;;12.30;9.50;;;;;;;12.21;52.80;98609.69;220903;1274;22556;-70
2022/05/03 20:58:55;;;;;;;12.30;10.20;;;;;;;12.10;52.84;98611.74;220873;1274;24466;-72
2022/05/03 21:03:57;;;;;;;13.60;9.90;;;;;;;11.99;53.12;98618.58;220726;1274;22684;-71
2022/05/03 21:09:01;;;;;;;13.70;9.90;;;;;;;11.87;53.58;98620.13;221024;1274;25257;-71
2022/05/03 21:14:07;;;;;;;12.20;9.40;;;;;;;11.75;54.25;98627.74;221054;1274;23154;-71
2022/05/03 21:19:09;;;;;;;15.20;10.60;;;;;;;11.61;55.02;98631.45;220749;1274;22747;-72
2022/05/03 21:24:25;;;;;;;12.50;10.40;;;;;;;11.46;55.16;98630.61;220849;1274;22684;-71
2022/05/03 21:29:45;;;;;;;16.20;11.80;;;;;;;11.30;55.17;98628.58;221028;1274;22601;-71
2022/05/03 21:34:50;;;;;;;16.40;12.00;;;;;;;11.18;55.36;98634.48;221338;1274;22553;-71
2022/05/03 21:39:53;;;;;;;19.30;12.80;;;;;;;11.09;55.74;98638.14;221764;1274;24349;-71
2022/05/03 21:44:55;;;;;;;19.70;14.30;;;;;;;11.02;55.65;98641.05;219196;1274;24295;-71
2022/05/03 21:49:58;;;;;;;18.20;13.60;;;;;;;11.00;55.63;98642.59;219039;1274;25357;-71
2022/05/03 21:55:00;;;;;;;19.20;12.90;;;;;;;11.04;55.65;98647.18;220590;1275;24353;-70
2022/05/03 22:00:04;;;;;;;16.40;12.50;;;;;;;11.04;55.52;98653.08;220662;1275;25406;-69
2022/05/03 22:05:07;;;;;;;15.80;12.00;;;;;;;11.02;55.62;98654.23;220933;1274;24721;-70
2022/05/03 22:10:23;;;;;;;17.10;11.60;;;;;;;11.01;55.63;98647.98;220945;1274;22628;-71
2022/05/03 22:15:44;;;;;;;16.20;12.00;;;;;;;11.00;55.94;98648.60;221152;1274;24387;-71
2022/05/03 22:20:47;;;;;;;15.90;12.40;;;;;;;11.00;55.81;98650.80;220971;1274;25114;-69
2022/05/03 22:25:50;;;;;;;17.00;12.70;;;;;;;10.96;55.97;98648.77;221056;1274;24273;-71
2022/05/03 22:30:52;;;;;;;21.70;14.00;;;;;;;10.89;56.13;98649.26;220884;1274;22569;-71
2022/05/03 22:35:54;;;;;;;17.70;13.40;;;;;;;10.79;56.44;98645.87;219188;1274;22560;-71
2022/05/03 22:40:57;;;;;;;18.20;13.10;;;;;;;10.68;56.46;98645.95;220750;1274;22553;-71
2022/05/03 22:45:59;;;;;;;17.70;13.30;;;;;;;10.57;56.82;98644.29;220829;1274;23186;-71
2022/05/03 22:51:06;;;;;;;20.90;14.30;;;;;;;10.44;57.23;98646.72;221224;1273;25251;-70
2022/05/03 22:56:28;;;;;;;21.30;15.10;;;;;;;10.34;57.51;98647.59;221310;1274;22772;-71
2022/05/03 23:01:30;;;;;;;25.00;15.20;;;;;;;10.25;57.97;98644.66;221022;1274;24147;-71
2022/05/03 23:06:33;;;;;;;25.60;16.30;;;;;;;10.17;58.14;98643.59;220791;1274;22715;-72
2022/05/03 23:11:35;;;;;;;23.40;16.00;;;;;;;10.10;58.49;98644.22;220691;1274;25306;-71
2022/05/03 23:16:37;;;;;;;24.90;16.90;;;;;;;10.04;58.88;98644.94;220652;1275;22557;-71
2022/05/03 23:21:40;;;;;;;24.60;17.10;;;;;;;10.01;59.15;98644.27;220641;1274;23531;-71
2022/05/03 23:26:44;;;;;;;20.50;14.60;;;;;;;10.02;59.38;98643.80;220910;1274;25318;-71
2022/05/03 23:31:47;;;;;;;20.80;14.10;;;;;;;10.02;59.13;98646.52;221144;1274;23798;-70
2022/05/03 23:36:49;;;;;;;17.90;13.60;;;;;;;10.04;59.10;98646.91;221496;1274;22670;-71
2022/05/03 23:41:52;;;;;;;20.60;14.40;;;;;;;10.06;59.20;98649.35;221027;1274;22562;-71
2022/05/03 23:46:57;;;;;;;20.20;13.90;;;;;;;10.06;59.49;98647.81;221718;1274;22704;-70
2022/05/03 23:52:01;;;;;;;19.80;13.80;;;;;;;10.08;59.47;98645.42;221169;1274;22559;-70
2022/05/03 23:57:03;;;;;;;18.50;13.90;;;;;;;10.15;59.64;98646.58;221249;1274;22627;-71
